sensor_id;sensor_type;location;lat;lon;timestamp;temperature;humidity
30304;DHT22;17112;48.636;10.152;2024-02-26T00:01:41;7.10;62.80
30304;DHT22;17112;48.636;10.152;2024-02-26T00:04:09;7.10;62.90
30304;DHT22;17112;48.636;10.152;2024-02-26T00:06:35;7.10;62.90
30304;DHT22;17112;48.636;10.152;2024-02-26T00:09:01;7.10;63.00
30304;DHT22;17112;48.636;10.152;2024-02-26T00:11:28;7.10;63.10
30304;DHT22;17112;48.636;10.152;2024-02-26T00:13:53;7.10;63.30
30304;DHT22;17112;48.636;10.152;2024-02-26T00:16:19;7.00;63.20
30304;DHT22;17112;48.636;10.152;2024-02-26T00:18:45;7.00;63.10
30304;DHT22;17112;48.636;10.152;2024-02-26T00:21:11;7.10;63.60
30304;DHT22;17112;48.636;10.152;2024-02-26T00:23:37;7.10;63.90
30304;DHT22;17112;48.636;10.152;2024-02-26T00:26:02;7.10;64.10
30304;DHT22;17112;48.636;10.152;2024-02-26T00:28:29;7.20;64.20
30304;DHT22;17112;48.636;10.152;2024-02-26T00:30:54;7.20;64.10
30304;DHT22;17112;48.636;10.152;2024-02-26T00:33:22;7.20;64.00
30304;DHT22;17112;48.636;10.152;2024-02-26T00:35:48;7.30;64.20
30304;DHT22;17112;48.636;10.152;2024-02-26T00:38:14;7.30;64.10
30304;DHT22;17112;48.636;10.152;2024-02-26T00:40:40;7.30;63.90
30304;DHT22;17112;48.636;10.152;2024-02-26T00:43:06;7.40;64.20
30304;DHT22;17112;48.636;10.152;2024-02-26T00:45:32;7.40;64.20
30304;DHT22;17112;48.636;10.152;2024-02-26T00:47:59;7.40;64.20
30304;DHT22;17112;48.636;10.152;2024-02-26T00:50:33;7.40;63.80
30304;DHT22;17112;48.636;10.152;2024-02-26T00:52:59;7.40;63.80
30304;DHT22;17112;48.636;10.152;2024-02-26T00:55:25;7.50;64.10
30304;DHT22;17112;48.636;10.152;2024-02-26T00:57:51;7.50;63.90
30304;DHT22;17112;48.636;10.152;2024-02-26T01:00:17;7.50;63.90
30304;DHT22;17112;48.636;10.152;2024-02-26T01:02:42;7.50;64.00
30304;DHT22;17112;48.636;10.152;2024-02-26T01:05:08;7.50;63.90
30304;DHT22;17112;48.636;10.152;2024-02-26T01:07:37;7.60;64.00
30304;DHT22;17112;48.636;10.152;2024-02-26T01:10:03;7.60;64.10
30304;DHT22;17112;48.636;10.152;2024-02-26T01:12:29;7.60;64.00
30304;DHT22;17112;48.636;10.152;2024-02-26T01:14:55;7.60;64.10
30304;DHT22;17112;48.636;10.152;2024-02-26T01:17:21;7.60;64.10
30304;DHT22;17112;48.636;10.152;2024-02-26T01:19:46;7.60;64.20
30304;DHT22;17112;48.636;10.152;2024-02-26T01:22:12;7.70;64.30
30304;DHT22;17112;48.636;10.152;2024-02-26T01:24:38;7.70;64.10
30304;DHT22;17112;48.636;10.152;2024-02-26T01:27:04;7.70;64.20
30304;DHT22;17112;48.636;10.152;2024-02-26T01:29:29;7.70;64.20
30304;DHT22;17112;48.636;10.152;2024-02-26T01:31:55;7.70;64.10
30304;DHT22;17112;48.636;10.152;2024-02-26T01:34:21;7.70;64.10
30304;DHT22;17112;48.636;10.152;2024-02-26T01:36:47;7.70;63.80
30304;DHT22;17112;48.636;10.152;2024-02-26T01:39:13;7.70;63.90
30304;DHT22;17112;48.636;10.152;2024-02-26T01:41:39;7.70;64.00
30304;DHT22;17112;48.636;10.152;2024-02-26T01:44:06;7.70;63.80
30304;DHT22;17112;48.636;10.152;2024-02-26T01:46:33;7.70;64.00
30304;DHT22;17112;48.636;10.152;2024-02-26T01:48:59;7.70;64.00
30304;DHT22;17112;48.636;10.152;2024-02-26T01:51:27;7.60;64.00
30304;DHT22;17112;48.636;10.152;2024-02-26T01:53:53;7.60;64.00
30304;DHT22;17112;48.636;10.152;2024-02-26T01:56:19;7.60;64.00
30304;DHT22;17112;48.636;10.152;2024-02-26T01:58:46;7.60;64.10
30304;DHT22;17112;48.636;10.152;2024-02-26T02:01:15;7.60;64.10
30304;DHT22;17112;48.636;10.152;2024-02-26T02:03:42;7.60;64.20
30304;DHT22;17112;48.636;10.152;2024-02-26T02:06:09;7.60;64.20
30304;DHT22;17112;48.636;10.152;2024-02-26T02:08:35;7.60;64.20
30304;DHT22;17112;48.636;10.152;2024-02-26T02:11:01;7.60;64.30
30304;DHT22;17112;48.636;10.152;2024-02-26T02:13:27;7.60;64.20
30304;DHT22;17112;48.636;10.152;2024-02-26T02:15:53;7.60;64.20
30304;DHT22;17112;48.636;10.152;2024-02-26T02:18:19;7.60;64.30
30304;DHT22;17112;48.636;10.152;2024-02-26T02:20:45;7.60;64.20
30304;DHT22;17112;48.636;10.152;2024-02-26T02:23:10;7.60;64.20
30304;DHT22;17112;48.636;10.152;2024-02-26T02:25:36;7.60;64.30
30304;DHT22;17112;48.636;10.152;2024-02-26T02:28:02;7.50;64.20
30304;DHT22;17112;48.636;10.152;2024-02-26T02:30:29;7.50;64.30
30304;DHT22;17112;48.636;10.152;2024-02-26T02:32:57;7.50;64.40
30304;DHT22;17112;48.636;10.152;2024-02-26T02:35:24;7.50;64.40
30304;DHT22;17112;48.636;10.152;2024-02-26T02:37:52;7.50;64.50
30304;DHT22;17112;48.636;10.152;2024-02-26T02:40:18;7.50;64.70
30304;DHT22;17112;48.636;10.152;2024-02-26T02:42:43;7.40;64.60
30304;DHT22;17112;48.636;10.152;2024-02-26T02:45:09;7.40;64.60
30304;DHT22;17112;48.636;10.152;2024-02-26T02:47:36;7.40;64.50
30304;DHT22;17112;48.636;10.152;2024-02-26T02:50:03;7.40;64.60
30304;DHT22;17112;48.636;10.152;2024-02-26T02:52:29;7.40;64.70
30304;DHT22;17112;48.636;10.152;2024-02-26T02:54:55;7.40;64.50
30304;DHT22;17112;48.636;10.152;2024-02-26T02:57:20;7.40;64.60
30304;DHT22;17112;48.636;10.152;2024-02-26T02:59:46;7.40;64.70
30304;DHT22;17112;48.636;10.152;2024-02-26T03:02:12;7.40;64.70
30304;DHT22;17112;48.636;10.152;2024-02-26T03:04:37;7.40;64.60
30304;DHT22;17112;48.636;10.152;2024-02-26T03:07:03;7.40;64.50
30304;DHT22;17112;48.636;10.152;2024-02-26T03:09:29;7.40;64.50
30304;DHT22;17112;48.636;10.152;2024-02-26T03:11:55;7.40;64.70
30304;DHT22;17112;48.636;10.152;2024-02-26T03:14:20;7.40;64.80
30304;DHT22;17112;48.636;10.152;2024-02-26T03:16:46;7.40;64.90
30304;DHT22;17112;48.636;10.152;2024-02-26T03:19:14;7.40;65.00
30304;DHT22;17112;48.636;10.152;2024-02-26T03:21:41;7.40;65.00
30304;DHT22;17112;48.636;10.152;2024-02-26T03:24:07;7.40;65.00
30304;DHT22;17112;48.636;10.152;2024-02-26T03:26:37;7.40;65.00
30304;DHT22;17112;48.636;10.152;2024-02-26T03:29:03;7.40;65.00
30304;DHT22;17112;48.636;10.152;2024-02-26T03:31:29;7.40;65.00
30304;DHT22;17112;48.636;10.152;2024-02-26T03:33:55;7.40;65.00
30304;DHT22;17112;48.636;10.152;2024-02-26T03:36:20;7.40;65.00
30304;DHT22;17112;48.636;10.152;2024-02-26T03:38:47;7.40;65.20
30304;DHT22;17112;48.636;10.152;2024-02-26T03:41:14;7.40;65.10
30304;DHT22;17112;48.636;10.152;2024-02-26T03:43:39;7.30;64.90
30304;DHT22;17112;48.636;10.152;2024-02-26T03:46:08;7.30;65.30
30304;DHT22;17112;48.636;10.152;2024-02-26T03:48:43;7.30;65.40
30304;DHT22;17112;48.636;10.152;2024-02-26T03:51:09;7.30;65.60
30304;DHT22;17112;48.636;10.152;2024-02-26T03:53:36;7.20;65.30
30304;DHT22;17112;48.636;10.152;2024-02-26T03:56:06;7.20;65.40
30304;DHT22;17112;48.636;10.152;2024-02-26T03:58:32;7.20;65.60
30304;DHT22;17112;48.636;10.152;2024-02-26T04:00:58;7.20;65.40
30304;DHT22;17112;48.636;10.152;2024-02-26T04:03:24;7.20;66.00
30304;DHT22;17112;48.636;10.152;2024-02-26T04:05:51;7.10;65.60
30304;DHT22;17112;48.636;10.152;2024-02-26T04:08:16;7.10;66.00
30304;DHT22;17112;48.636;10.152;2024-02-26T04:10:42;7.10;66.20
30304;DHT22;17112;48.636;10.152;2024-02-26T04:13:07;7.10;66.30
30304;DHT22;17112;48.636;10.152;2024-02-26T04:15:33;7.10;66.70
30304;DHT22;17112;48.636;10.152;2024-02-26T04:17:59;7.10;66.30
30304;DHT22;17112;48.636;10.152;2024-02-26T04:20:25;7.10;66.30
30304;DHT22;17112;48.636;10.152;2024-02-26T04:22:50;7.10;66.10
30304;DHT22;17112;48.636;10.152;2024-02-26T04:25:17;7.10;66.70
30304;DHT22;17112;48.636;10.152;2024-02-26T04:27:42;7.10;66.70
30304;DHT22;17112;48.636;10.152;2024-02-26T04:30:08;7.30;66.60
30304;DHT22;17112;48.636;10.152;2024-02-26T04:32:34;7.10;66.20
30304;DHT22;17112;48.636;10.152;2024-02-26T04:35:01;7.00;66.50
30304;DHT22;17112;48.636;10.152;2024-02-26T04:37:27;7.10;66.40
30304;DHT22;17112;48.636;10.152;2024-02-26T04:40:01;7.10;66.20
30304;DHT22;17112;48.636;10.152;2024-02-26T04:42:27;7.10;66.60
30304;DHT22;17112;48.636;10.152;2024-02-26T04:44:54;7.10;66.30
30304;DHT22;17112;48.636;10.152;2024-02-26T04:47:19;7.10;66.60
30304;DHT22;17112;48.636;10.152;2024-02-26T04:49:48;7.10;66.80
30304;DHT22;17112;48.636;10.152;2024-02-26T04:52:14;7.10;66.80
30304;DHT22;17112;48.636;10.152;2024-02-26T04:54:40;7.10;66.90
30304;DHT22;17112;48.636;10.152;2024-02-26T04:57:06;7.20;67.00
30304;DHT22;17112;48.636;10.152;2024-02-26T04:59:31;7.20;67.00
30304;DHT22;17112;48.636;10.152;2024-02-26T05:01:57;7.20;66.90
30304;DHT22;17112;48.636;10.152;2024-02-26T05:04:22;7.20;67.00
30304;DHT22;17112;48.636;10.152;2024-02-26T05:06:48;7.20;66.80
30304;DHT22;17112;48.636;10.152;2024-02-26T05:09:14;7.20;66.80
30304;DHT22;17112;48.636;10.152;2024-02-26T05:11:39;7.30;66.90
30304;DHT22;17112;48.636;10.152;2024-02-26T05:14:05;7.30;66.90
30304;DHT22;17112;48.636;10.152;2024-02-26T05:16:31;7.30;66.90
30304;DHT22;17112;48.636;10.152;2024-02-26T05:18:57;7.40;66.90
30304;DHT22;17112;48.636;10.152;2024-02-26T05:21:23;7.40;66.90
30304;DHT22;17112;48.636;10.152;2024-02-26T05:23:48;7.40;66.80
30304;DHT22;17112;48.636;10.152;2024-02-26T05:26:21;7.40;66.70
30304;DHT22;17112;48.636;10.152;2024-02-26T05:28:47;7.40;66.90
30304;DHT22;17112;48.636;10.152;2024-02-26T05:31:13;7.40;66.60
30304;DHT22;17112;48.636;10.152;2024-02-26T05:33:39;7.40;66.60
30304;DHT22;17112;48.636;10.152;2024-02-26T05:36:05;7.40;66.20
30304;DHT22;17112;48.636;10.152;2024-02-26T05:38:31;7.40;66.20
30304;DHT22;17112;48.636;10.152;2024-02-26T05:40:57;7.40;66.50
30304;DHT22;17112;48.636;10.152;2024-02-26T05:43:24;7.40;66.40
30304;DHT22;17112;48.636;10.152;2024-02-26T05:45:50;7.40;66.40
30304;DHT22;17112;48.636;10.152;2024-02-26T05:48:16;7.40;66.50
30304;DHT22;17112;48.636;10.152;2024-02-26T05:50:41;7.40;66.60
30304;DHT22;17112;48.636;10.152;2024-02-26T05:53:07;7.50;66.70
30304;DHT22;17112;48.636;10.152;2024-02-26T05:55:33;7.50;66.70
30304;DHT22;17112;48.636;10.152;2024-02-26T05:57:58;7.50;66.70
30304;DHT22;17112;48.636;10.152;2024-02-26T06:00:24;7.50;66.50
30304;DHT22;17112;48.636;10.152;2024-02-26T06:02:50;7.50;66.60
30304;DHT22;17112;48.636;10.152;2024-02-26T06:05:15;7.50;66.50
30304;DHT22;17112;48.636;10.152;2024-02-26T06:07:41;7.50;66.50
30304;DHT22;17112;48.636;10.152;2024-02-26T06:10:07;7.50;66.90
30304;DHT22;17112;48.636;10.152;2024-02-26T06:12:35;7.40;66.50
30304;DHT22;17112;48.636;10.152;2024-02-26T06:15:01;7.40;66.80
30304;DHT22;17112;48.636;10.152;2024-02-26T06:17:27;7.40;66.60
30304;DHT22;17112;48.636;10.152;2024-02-26T06:19:53;7.40;66.70
30304;DHT22;17112;48.636;10.152;2024-02-26T06:22:19;7.40;66.30
30304;DHT22;17112;48.636;10.152;2024-02-26T06:24:45;7.40;66.50
30304;DHT22;17112;48.636;10.152;2024-02-26T06:27:10;7.40;66.60
30304;DHT22;17112;48.636;10.152;2024-02-26T06:29:36;7.50;66.80
30304;DHT22;17112;48.636;10.152;2024-02-26T06:32:02;7.50;66.90
30304;DHT22;17112;48.636;10.152;2024-02-26T06:34:27;7.50;67.40
30304;DHT22;17112;48.636;10.152;2024-02-26T06:36:53;7.60;66.50
30304;DHT22;17112;48.636;10.152;2024-02-26T06:39:19;7.60;66.60
30304;DHT22;17112;48.636;10.152;2024-02-26T06:41:45;7.60;66.60
30304;DHT22;17112;48.636;10.152;2024-02-26T06:44:13;7.60;66.70
30304;DHT22;17112;48.636;10.152;2024-02-26T06:46:38;7.60;66.80
30304;DHT22;17112;48.636;10.152;2024-02-26T06:49:06;7.70;66.80
30304;DHT22;17112;48.636;10.152;2024-02-26T06:51:31;7.70;66.80
30304;DHT22;17112;48.636;10.152;2024-02-26T06:53:57;7.70;66.80
30304;DHT22;17112;48.636;10.152;2024-02-26T06:56:23;7.70;66.80
30304;DHT22;17112;48.636;10.152;2024-02-26T06:58:48;7.80;66.80
30304;DHT22;17112;48.636;10.152;2024-02-26T07:01:14;7.80;66.80
30304;DHT22;17112;48.636;10.152;2024-02-26T07:03:43;7.80;66.80
30304;DHT22;17112;48.636;10.152;2024-02-26T07:06:08;7.90;66.60
30304;DHT22;17112;48.636;10.152;2024-02-26T07:08:34;7.90;66.50
30304;DHT22;17112;48.636;10.152;2024-02-26T07:11:00;7.90;66.60
30304;DHT22;17112;48.636;10.152;2024-02-26T07:13:25;8.00;66.60
30304;DHT22;17112;48.636;10.152;2024-02-26T07:15:51;8.00;66.60
30304;DHT22;17112;48.636;10.152;2024-02-26T07:18:17;8.10;66.40
30304;DHT22;17112;48.636;10.152;2024-02-26T07:20:42;8.10;66.40
30304;DHT22;17112;48.636;10.152;2024-02-26T07:23:08;8.10;66.30
30304;DHT22;17112;48.636;10.152;2024-02-26T07:25:34;8.20;66.20
30304;DHT22;17112;48.636;10.152;2024-02-26T07:28:00;8.20;66.20
30304;DHT22;17112;48.636;10.152;2024-02-26T07:30:25;8.20;66.10
30304;DHT22;17112;48.636;10.152;2024-02-26T07:32:51;8.30;66.20
30304;DHT22;17112;48.636;10.152;2024-02-26T07:35:17;8.30;66.30
30304;DHT22;17112;48.636;10.152;2024-02-26T07:37:43;8.40;66.30
30304;DHT22;17112;48.636;10.152;2024-02-26T07:40:09;8.40;66.10
30304;DHT22;17112;48.636;10.152;2024-02-26T07:42:35;8.50;65.90
30304;DHT22;17112;48.636;10.152;2024-02-26T07:45:01;8.50;65.60
30304;DHT22;17112;48.636;10.152;2024-02-26T07:47:27;8.60;65.40
30304;DHT22;17112;48.636;10.152;2024-02-26T07:49:53;8.60;65.20
30304;DHT22;17112;48.636;10.152;2024-02-26T07:52:18;8.60;65.10
30304;DHT22;17112;48.636;10.152;2024-02-26T07:54:44;8.60;64.90
30304;DHT22;17112;48.636;10.152;2024-02-26T07:57:09;8.70;65.00
30304;DHT22;17112;48.636;10.152;2024-02-26T07:59:35;8.70;64.90
30304;DHT22;17112;48.636;10.152;2024-02-26T08:02:01;8.70;64.80
30304;DHT22;17112;48.636;10.152;2024-02-26T08:04:29;8.80;64.70
30304;DHT22;17112;48.636;10.152;2024-02-26T08:06:54;8.90;64.60
30304;DHT22;17112;48.636;10.152;2024-02-26T08:09:20;8.90;64.50
30304;DHT22;17112;48.636;10.152;2024-02-26T08:11:46;9.00;64.60
30304;DHT22;17112;48.636;10.152;2024-02-26T08:14:11;9.10;64.70
30304;DHT22;17112;48.636;10.152;2024-02-26T08:16:37;9.20;64.80
30304;DHT22;17112;48.636;10.152;2024-02-26T08:19:02;9.30;64.60
30304;DHT22;17112;48.636;10.152;2024-02-26T08:21:28;9.40;64.30
30304;DHT22;17112;48.636;10.152;2024-02-26T08:23:54;9.50;63.90
30304;DHT22;17112;48.636;10.152;2024-02-26T08:26:20;9.60;63.70
30304;DHT22;17112;48.636;10.152;2024-02-26T08:28:47;9.70;63.60
30304;DHT22;17112;48.636;10.152;2024-02-26T08:31:14;9.80;63.60
30304;DHT22;17112;48.636;10.152;2024-02-26T08:33:40;9.80;63.40
30304;DHT22;17112;48.636;10.152;2024-02-26T08:36:06;9.90;63.40
30304;DHT22;17112;48.636;10.152;2024-02-26T08:38:32;10.00;63.90
30304;DHT22;17112;48.636;10.152;2024-02-26T08:41:00;10.00;62.60
30304;DHT22;17112;48.636;10.152;2024-02-26T08:43:26;10.10;62.20
30304;DHT22;17112;48.636;10.152;2024-02-26T08:45:52;10.00;61.90
30304;DHT22;17112;48.636;10.152;2024-02-26T08:48:19;10.00;61.80
30304;DHT22;17112;48.636;10.152;2024-02-26T08:50:44;9.90;61.50
30304;DHT22;17112;48.636;10.152;2024-02-26T08:53:10;9.90;61.60
30304;DHT22;17112;48.636;10.152;2024-02-26T08:55:36;9.90;61.70
30304;DHT22;17112;48.636;10.152;2024-02-26T08:58:01;9.80;61.80
30304;DHT22;17112;48.636;10.152;2024-02-26T09:00:27;9.80;61.80
30304;DHT22;17112;48.636;10.152;2024-02-26T09:02:53;9.80;61.90
30304;DHT22;17112;48.636;10.152;2024-02-26T09:05:18;9.90;61.90
30304;DHT22;17112;48.636;10.152;2024-02-26T09:07:44;9.90;62.00
30304;DHT22;17112;48.636;10.152;2024-02-26T09:10:10;9.90;62.10
30304;DHT22;17112;48.636;10.152;2024-02-26T09:12:36;9.90;62.20
30304;DHT22;17112;48.636;10.152;2024-02-26T09:15:03;10.00;62.30
30304;DHT22;17112;48.636;10.152;2024-02-26T09:17:28;10.10;62.20
30304;DHT22;17112;48.636;10.152;2024-02-26T09:19:54;10.10;62.10
30304;DHT22;17112;48.636;10.152;2024-02-26T09:22:20;10.20;61.90
30304;DHT22;17112;48.636;10.152;2024-02-26T09:24:46;10.20;61.70
30304;DHT22;17112;48.636;10.152;2024-02-26T09:27:11;10.30;61.50
30304;DHT22;17112;48.636;10.152;2024-02-26T09:29:37;10.30;61.40
30304;DHT22;17112;48.636;10.152;2024-02-26T09:32:03;10.30;61.40
30304;DHT22;17112;48.636;10.152;2024-02-26T09:34:29;10.40;61.30
30304;DHT22;17112;48.636;10.152;2024-02-26T09:36:54;10.50;61.20
30304;DHT22;17112;48.636;10.152;2024-02-26T09:39:20;10.50;61.10
30304;DHT22;17112;48.636;10.152;2024-02-26T09:41:48;10.60;61.30
30304;DHT22;17112;48.636;10.152;2024-02-26T09:44:19;10.60;61.00
30304;DHT22;17112;48.636;10.152;2024-02-26T09:46:47;10.70;60.80
30304;DHT22;17112;48.636;10.152;2024-02-26T09:49:17;10.80;60.90
30304;DHT22;17112;48.636;10.152;2024-02-26T09:51:44;10.80;61.00
30304;DHT22;17112;48.636;10.152;2024-02-26T09:54:10;10.90;61.10
30304;DHT22;17112;48.636;10.152;2024-02-26T09:56:39;10.90;60.80
30304;DHT22;17112;48.636;10.152;2024-02-26T09:59:15;11.00;60.50
30304;DHT22;17112;48.636;10.152;2024-02-26T10:01:42;11.00;60.50
30304;DHT22;17112;48.636;10.152;2024-02-26T10:04:10;11.10;60.80
30304;DHT22;17112;48.636;10.152;2024-02-26T10:06:37;11.20;60.40
30304;DHT22;17112;48.636;10.152;2024-02-26T10:09:03;11.30;60.50
30304;DHT22;17112;48.636;10.152;2024-02-26T10:11:33;11.50;60.70
30304;DHT22;17112;48.636;10.152;2024-02-26T10:13:59;11.70;61.00
30304;DHT22;17112;48.636;10.152;2024-02-26T10:16:28;11.90;60.60
30304;DHT22;17112;48.636;10.152;2024-02-26T10:18:54;12.10;60.10
30304;DHT22;17112;48.636;10.152;2024-02-26T10:21:20;12.30;59.80
30304;DHT22;17112;48.636;10.152;2024-02-26T10:23:47;12.50;59.20
30304;DHT22;17112;48.636;10.152;2024-02-26T10:26:14;12.60;58.90
30304;DHT22;17112;48.636;10.152;2024-02-26T10:28:41;12.70;59.00
30304;DHT22;17112;48.636;10.152;2024-02-26T10:31:08;12.90;58.80
30304;DHT22;17112;48.636;10.152;2024-02-26T10:33:38;13.00;58.60
30304;DHT22;17112;48.636;10.152;2024-02-26T10:36:05;13.10;58.30
30304;DHT22;17112;48.636;10.152;2024-02-26T10:38:38;13.20;58.30
30304;DHT22;17112;48.636;10.152;2024-02-26T10:41:04;13.30;57.80
30304;DHT22;17112;48.636;10.152;2024-02-26T10:43:31;13.40;57.90
30304;DHT22;17112;48.636;10.152;2024-02-26T10:45:57;13.40;58.00
30304;DHT22;17112;48.636;10.152;2024-02-26T10:48:24;13.50;57.90
30304;DHT22;17112;48.636;10.152;2024-02-26T10:50:50;13.60;57.80
30304;DHT22;17112;48.636;10.152;2024-02-26T10:53:23;13.60;57.50
30304;DHT22;17112;48.636;10.152;2024-02-26T10:55:55;13.70;57.00
30304;DHT22;17112;48.636;10.152;2024-02-26T10:58:22;13.70;56.80
30304;DHT22;17112;48.636;10.152;2024-02-26T11:00:51;13.80;57.00
30304;DHT22;17112;48.636;10.152;2024-02-26T11:03:18;13.90;57.20
30304;DHT22;17112;48.636;10.152;2024-02-26T11:05:48;14.00;57.10
30304;DHT22;17112;48.636;10.152;2024-02-26T11:08:14;14.00;56.80
30304;DHT22;17112;48.636;10.152;2024-02-26T11:10:41;14.10;56.20
30304;DHT22;17112;48.636;10.152;2024-02-26T11:13:10;14.20;56.20
30304;DHT22;17112;48.636;10.152;2024-02-26T11:15:38;14.30;55.70
30304;DHT22;17112;48.636;10.152;2024-02-26T11:18:05;14.30;55.40
30304;DHT22;17112;48.636;10.152;2024-02-26T11:20:33;14.30;55.30
30304;DHT22;17112;48.636;10.152;2024-02-26T11:22:59;14.40;55.20
30304;DHT22;17112;48.636;10.152;2024-02-26T11:25:25;14.40;55.00
30304;DHT22;17112;48.636;10.152;2024-02-26T11:27:56;14.40;55.10
30304;DHT22;17112;48.636;10.152;2024-02-26T11:30:25;14.50;54.60
30304;DHT22;17112;48.636;10.152;2024-02-26T11:32:52;14.50;54.90
30304;DHT22;17112;48.636;10.152;2024-02-26T11:35:19;14.60;54.80
30304;DHT22;17112;48.636;10.152;2024-02-26T11:37:53;14.60;54.60
30304;DHT22;17112;48.636;10.152;2024-02-26T11:40:18;14.70;54.00
30304;DHT22;17112;48.636;10.152;2024-02-26T11:42:45;14.70;54.80
30304;DHT22;17112;48.636;10.152;2024-02-26T11:48:16;14.80;54.30
30304;DHT22;17112;48.636;10.152;2024-02-26T11:50:51;14.90;54.60
30304;DHT22;17112;48.636;10.152;2024-02-26T11:53:24;15.00;54.60
30304;DHT22;17112;48.636;10.152;2024-02-26T11:56:13;15.00;54.30
30304;DHT22;17112;48.636;10.152;2024-02-26T11:58:45;15.10;54.30
30304;DHT22;17112;48.636;10.152;2024-02-26T12:01:46;15.10;54.40
30304;DHT22;17112;48.636;10.152;2024-02-26T12:04:25;15.10;53.50
30304;DHT22;17112;48.636;10.152;2024-02-26T12:07:01;15.20;53.60
30304;DHT22;17112;48.636;10.152;2024-02-26T12:09:35;15.20;53.60
30304;DHT22;17112;48.636;10.152;2024-02-26T12:12:02;15.20;53.10
30304;DHT22;17112;48.636;10.152;2024-02-26T12:14:27;15.20;53.60
30304;DHT22;17112;48.636;10.152;2024-02-26T12:16:55;15.20;54.00
30304;DHT22;17112;48.636;10.152;2024-02-26T12:19:22;15.10;53.40
30304;DHT22;17112;48.636;10.152;2024-02-26T12:21:52;15.10;53.30
30304;DHT22;17112;48.636;10.152;2024-02-26T12:24:19;15.00;52.80
30304;DHT22;17112;48.636;10.152;2024-02-26T12:26:46;15.00;52.90
30304;DHT22;17112;48.636;10.152;2024-02-26T12:29:12;14.90;53.10
30304;DHT22;17112;48.636;10.152;2024-02-26T12:31:42;14.90;53.20
30304;DHT22;17112;48.636;10.152;2024-02-26T12:34:08;14.80;52.90
30304;DHT22;17112;48.636;10.152;2024-02-26T12:36:37;14.80;53.20
30304;DHT22;17112;48.636;10.152;2024-02-26T12:39:04;14.80;53.70
30304;DHT22;17112;48.636;10.152;2024-02-26T12:41:35;14.70;53.20
30304;DHT22;17112;48.636;10.152;2024-02-26T12:44:01;14.70;53.60
30304;DHT22;17112;48.636;10.152;2024-02-26T12:46:27;14.60;53.60
30304;DHT22;17112;48.636;10.152;2024-02-26T12:48:58;14.60;53.70
30304;DHT22;17112;48.636;10.152;2024-02-26T12:51:26;14.50;53.50
30304;DHT22;17112;48.636;10.152;2024-02-26T12:53:52;14.50;53.70
30304;DHT22;17112;48.636;10.152;2024-02-26T12:56:19;14.50;53.90
30304;DHT22;17112;48.636;10.152;2024-02-26T12:58:45;14.50;54.00
30304;DHT22;17112;48.636;10.152;2024-02-26T13:01:15;14.50;54.10
30304;DHT22;17112;48.636;10.152;2024-02-26T13:03:41;14.40;54.00
30304;DHT22;17112;48.636;10.152;2024-02-26T13:06:08;14.40;54.20
30304;DHT22;17112;48.636;10.152;2024-02-26T13:08:34;14.40;54.20
30304;DHT22;17112;48.636;10.152;2024-02-26T13:11:00;14.40;54.20
30304;DHT22;17112;48.636;10.152;2024-02-26T13:13:26;14.30;54.10
30304;DHT22;17112;48.636;10.152;2024-02-26T13:16:10;14.30;54.10
30304;DHT22;17112;48.636;10.152;2024-02-26T13:18:35;14.30;53.90
30304;DHT22;17112;48.636;10.152;2024-02-26T13:21:15;14.20;54.20
30304;DHT22;17112;48.636;10.152;2024-02-26T13:23:42;14.20;54.10
30304;DHT22;17112;48.636;10.152;2024-02-26T13:26:09;14.20;54.40
30304;DHT22;17112;48.636;10.152;2024-02-26T13:28:37;14.20;54.50
30304;DHT22;17112;48.636;10.152;2024-02-26T13:31:12;14.20;54.70
30304;DHT22;17112;48.636;10.152;2024-02-26T13:33:37;14.10;54.70
30304;DHT22;17112;48.636;10.152;2024-02-26T13:36:03;14.10;54.70
30304;DHT22;17112;48.636;10.152;2024-02-26T13:38:29;14.10;54.80
30304;DHT22;17112;48.636;10.152;2024-02-26T13:40:55;14.10;54.90
30304;DHT22;17112;48.636;10.152;2024-02-26T13:43:22;14.10;55.10
30304;DHT22;17112;48.636;10.152;2024-02-26T13:45:48;14.10;55.20
30304;DHT22;17112;48.636;10.152;2024-02-26T13:48:14;14.10;55.30
30304;DHT22;17112;48.636;10.152;2024-02-26T13:50:41;14.10;55.40
30304;DHT22;17112;48.636;10.152;2024-02-26T13:53:09;14.20;55.40
30304;DHT22;17112;48.636;10.152;2024-02-26T13:55:34;14.20;55.50
30304;DHT22;17112;48.636;10.152;2024-02-26T13:58:00;14.20;55.60
30304;DHT22;17112;48.636;10.152;2024-02-26T14:00:30;14.20;55.70
30304;DHT22;17112;48.636;10.152;2024-02-26T14:03:00;14.20;55.60
30304;DHT22;17112;48.636;10.152;2024-02-26T14:05:26;14.30;55.60
30304;DHT22;17112;48.636;10.152;2024-02-26T14:07:52;14.30;55.60
30304;DHT22;17112;48.636;10.152;2024-02-26T14:10:19;14.30;55.60
30304;DHT22;17112;48.636;10.152;2024-02-26T14:12:45;14.40;55.60
30304;DHT22;17112;48.636;10.152;2024-02-26T14:15:11;14.40;55.50
30304;DHT22;17112;48.636;10.152;2024-02-26T14:17:37;14.50;55.60
30304;DHT22;17112;48.636;10.152;2024-02-26T14:20:03;14.50;55.30
30304;DHT22;17112;48.636;10.152;2024-02-26T14:22:29;14.50;55.30
30304;DHT22;17112;48.636;10.152;2024-02-26T14:24:56;14.60;55.30
30304;DHT22;17112;48.636;10.152;2024-02-26T14:27:22;14.60;55.30
30304;DHT22;17112;48.636;10.152;2024-02-26T14:29:48;14.70;54.70
30304;DHT22;17112;48.636;10.152;2024-02-26T14:32:14;14.70;53.80
30304;DHT22;17112;48.636;10.152;2024-02-26T14:34:40;14.70;53.50
30304;DHT22;17112;48.636;10.152;2024-02-26T14:37:06;14.70;53.70
30304;DHT22;17112;48.636;10.152;2024-02-26T14:39:32;14.70;53.60
30304;DHT22;17112;48.636;10.152;2024-02-26T14:41:59;14.70;53.30
30304;DHT22;17112;48.636;10.152;2024-02-26T14:44:25;14.80;53.10
30304;DHT22;17112;48.636;10.152;2024-02-26T14:46:51;14.80;53.20
30304;DHT22;17112;48.636;10.152;2024-02-26T14:49:17;14.90;53.20
30304;DHT22;17112;48.636;10.152;2024-02-26T14:51:43;14.90;53.20
30304;DHT22;17112;48.636;10.152;2024-02-26T14:54:12;14.90;53.30
30304;DHT22;17112;48.636;10.152;2024-02-26T14:56:38;14.90;52.70
30304;DHT22;17112;48.636;10.152;2024-02-26T14:59:04;14.90;52.30
30304;DHT22;17112;48.636;10.152;2024-02-26T15:01:30;14.90;52.10
30304;DHT22;17112;48.636;10.152;2024-02-26T15:03:56;14.80;52.10
30304;DHT22;17112;48.636;10.152;2024-02-26T15:06:23;14.80;52.40
30304;DHT22;17112;48.636;10.152;2024-02-26T15:08:48;14.80;52.60
30304;DHT22;17112;48.636;10.152;2024-02-26T15:11:14;14.70;52.80
30304;DHT22;17112;48.636;10.152;2024-02-26T15:13:40;14.70;53.00
30304;DHT22;17112;48.636;10.152;2024-02-26T15:16:06;14.70;53.10
30304;DHT22;17112;48.636;10.152;2024-02-26T15:18:32;14.60;53.00
30304;DHT22;17112;48.636;10.152;2024-02-26T15:20:58;14.50;53.00
30304;DHT22;17112;48.636;10.152;2024-02-26T15:23:24;14.50;53.10
30304;DHT22;17112;48.636;10.152;2024-02-26T15:25:49;14.40;53.10